sensor_id;sensor_type;location;lat;lon;timestamp;P1;durP1;ratioP1;P2;durP2;ratioP2
36653;SDS011;22650;49.350;20.898;2022-12-07T00:01:16;11.93;;;4.80;;
36653;SDS011;22650;49.350;20.898;2022-12-07T00:03:53;11.80;;;5.35;;
36653;SDS011;22650;49.350;20.898;2022-12-07T00:06:28;16.58;;;6.43;;
36653;SDS011;22650;49.350;20.898;2022-12-07T00:09:02;9.27;;;4.15;;
36653;SDS011;22650;49.350;20.898;2022-12-07T00:11:36;9.85;;;4.72;;
36653;SDS011;22650;49.350;20.898;2022-12-07T00:14:10;9.88;;;3.90;;
36653;SDS011;22650;49.350;20.898;2022-12-07T00:16:45;10.02;;;4.60;;
36653;SDS011;22650;49.350;20.898;2022-12-07T00:19:22;9.65;;;4.15;;
36653;SDS011;22650;49.350;20.898;2022-12-07T00:21:56;11.35;;;4.43;;
36653;SDS011;22650;49.350;20.898;2022-12-07T00:24:29;10.23;;;4.28;;
36653;SDS011;22650;49.350;20.898;2022-12-07T00:27:02;9.52;;;4.20;;
36653;SDS011;22650;49.350;20.898;2022-12-07T00:29:36;7.50;;;3.35;;
36653;SDS011;22650;49.350;20.898;2022-12-07T00:32:09;9.15;;;4.10;;
36653;SDS011;22650;49.350;20.898;2022-12-07T00:34:44;5.95;;;3.38;;
36653;SDS011;22650;49.350;20.898;2022-12-07T00:37:17;11.98;;;4.45;;
36653;SDS011;22650;49.350;20.898;2022-12-07T00:39:52;8.07;;;3.33;;
36653;SDS011;22650;49.350;20.898;2022-12-07T00:42:26;10.05;;;4.10;;
36653;SDS011;22650;49.350;20.898;2022-12-07T00:44:59;7.47;;;3.83;;
36653;SDS011;22650;49.350;20.898;2022-12-07T00:47:33;9.88;;;4.07;;
36653;SDS011;22650;49.350;20.898;2022-12-07T00:50:08;8.35;;;3.15;;
36653;SDS011;22650;49.350;20.898;2022-12-07T00:52:41;6.57;;;2.97;;
36653;SDS011;22650;49.350;20.898;2022-12-07T00:55:15;5.03;;;2.60;;
36653;SDS011;22650;49.350;20.898;2022-12-07T00:57:48;4.32;;;2.67;;
36653;SDS011;22650;49.350;20.898;2022-12-07T01:00:22;8.63;;;3.17;;
36653;SDS011;22650;49.350;20.898;2022-12-07T01:02:55;5.93;;;2.70;;
36653;SDS011;22650;49.350;20.898;2022-12-07T01:05:30;4.50;;;2.65;;
36653;SDS011;22650;49.350;20.898;2022-12-07T01:08:04;11.27;;;4.30;;
36653;SDS011;22650;49.350;20.898;2022-12-07T01:10:38;6.03;;;2.50;;
36653;SDS011;22650;49.350;20.898;2022-12-07T01:13:11;5.78;;;3.15;;
36653;SDS011;22650;49.350;20.898;2022-12-07T01:15:44;4.45;;;2.10;;
36653;SDS011;22650;49.350;20.898;2022-12-07T01:18:18;4.03;;;2.35;;
36653;SDS011;22650;49.350;20.898;2022-12-07T01:21:00;5.13;;;2.50;;
36653;SDS011;22650;49.350;20.898;2022-12-07T01:23:34;7.22;;;2.60;;
36653;SDS011;22650;49.350;20.898;2022-12-07T01:26:09;5.22;;;2.28;;
36653;SDS011;22650;49.350;20.898;2022-12-07T01:28:44;5.57;;;2.35;;
36653;SDS011;22650;49.350;20.898;2022-12-07T01:31:18;4.30;;;2.20;;
36653;SDS011;22650;49.350;20.898;2022-12-07T01:33:54;5.03;;;3.15;;
36653;SDS011;22650;49.350;20.898;2022-12-07T01:36:31;7.28;;;2.35;;
36653;SDS011;22650;49.350;20.898;2022-12-07T01:39:06;4.20;;;1.75;;
36653;SDS011;22650;49.350;20.898;2022-12-07T01:41:42;3.92;;;1.60;;
36653;SDS011;22650;49.350;20.898;2022-12-07T01:44:20;2.83;;;1.75;;
36653;SDS011;22650;49.350;20.898;2022-12-07T01:46:55;4.30;;;1.92;;
36653;SDS011;22650;49.350;20.898;2022-12-07T01:49:31;3.22;;;1.95;;
36653;SDS011;22650;49.350;20.898;2022-12-07T01:52:13;6.63;;;1.77;;
36653;SDS011;22650;49.350;20.898;2022-12-07T01:54:51;2.63;;;1.77;;
36653;SDS011;22650;49.350;20.898;2022-12-07T01:57:27;3.22;;;1.92;;
36653;SDS011;22650;49.350;20.898;2022-12-07T02:00:02;4.28;;;2.45;;
36653;SDS011;22650;49.350;20.898;2022-12-07T02:02:46;6.28;;;2.55;;
36653;SDS011;22650;49.350;20.898;2022-12-07T02:05:24;6.38;;;2.22;;
36653;SDS011;22650;49.350;20.898;2022-12-07T02:07:59;6.80;;;2.30;;
36653;SDS011;22650;49.350;20.898;2022-12-07T02:10:34;6.35;;;2.58;;
36653;SDS011;22650;49.350;20.898;2022-12-07T02:13:08;6.05;;;2.80;;
36653;SDS011;22650;49.350;20.898;2022-12-07T02:15:49;3.88;;;2.10;;
36653;SDS011;22650;49.350;20.898;2022-12-07T02:18:32;4.25;;;2.25;;
36653;SDS011;22650;49.350;20.898;2022-12-07T02:21:15;4.05;;;2.00;;
36653;SDS011;22650;49.350;20.898;2022-12-07T02:24:03;4.15;;;2.10;;
36653;SDS011;22650;49.350;20.898;2022-12-07T02:26:53;8.00;;;3.45;;
36653;SDS011;22650;49.350;20.898;2022-12-07T02:29:56;3.95;;;2.20;;
36653;SDS011;22650;49.350;20.898;2022-12-07T02:32:38;3.83;;;2.25;;
36653;SDS011;22650;49.350;20.898;2022-12-07T02:35:17;4.53;;;2.30;;
36653;SDS011;22650;49.350;20.898;2022-12-07T02:37:57;4.60;;;2.58;;
36653;SDS011;22650;49.350;20.898;2022-12-07T02:40:35;5.00;;;1.80;;
36653;SDS011;22650;49.350;20.898;2022-12-07T02:43:14;7.10;;;2.70;;
36653;SDS011;22650;49.350;20.898;2022-12-07T02:45:55;3.65;;;2.22;;
36653;SDS011;22650;49.350;20.898;2022-12-07T02:48:31;4.28;;;2.17;;
36653;SDS011;22650;49.350;20.898;2022-12-07T02:51:06;4.80;;;1.98;;
36653;SDS011;22650;49.350;20.898;2022-12-07T02:53:40;4.38;;;2.30;;
36653;SDS011;22650;49.350;20.898;2022-12-07T02:56:17;5.15;;;2.55;;
36653;SDS011;22650;49.350;20.898;2022-12-07T02:59:02;3.17;;;2.00;;
36653;SDS011;22650;49.350;20.898;2022-12-07T03:01:49;3.80;;;2.05;;
36653;SDS011;22650;49.350;20.898;2022-12-07T03:04:33;4.65;;;2.45;;
36653;SDS011;22650;49.350;20.898;2022-12-07T03:07:17;6.13;;;2.67;;
36653;SDS011;22650;49.350;20.898;2022-12-07T03:09:59;3.83;;;2.20;;
36653;SDS011;22650;49.350;20.898;2022-12-07T03:12:42;4.55;;;2.72;;
36653;SDS011;22650;49.350;20.898;2022-12-07T03:15:22;5.78;;;2.38;;
36653;SDS011;22650;49.350;20.898;2022-12-07T03:18:01;4.03;;;2.60;;
36653;SDS011;22650;49.350;20.898;2022-12-07T03:20:37;6.00;;;3.10;;
36653;SDS011;22650;49.350;20.898;2022-12-07T03:23:14;7.82;;;2.63;;
36653;SDS011;22650;49.350;20.898;2022-12-07T03:25:50;5.28;;;3.03;;
36653;SDS011;22650;49.350;20.898;2022-12-07T03:28:31;5.43;;;2.80;;
36653;SDS011;22650;49.350;20.898;2022-12-07T03:31:10;7.90;;;2.72;;
36653;SDS011;22650;49.350;20.898;2022-12-07T03:33:51;8.73;;;2.40;;
36653;SDS011;22650;49.350;20.898;2022-12-07T03:36:30;5.55;;;2.95;;
36653;SDS011;22650;49.350;20.898;2022-12-07T03:39:11;4.03;;;2.00;;
36653;SDS011;22650;49.350;20.898;2022-12-07T03:41:50;7.87;;;2.47;;
36653;SDS011;22650;49.350;20.898;2022-12-07T03:44:25;5.72;;;2.40;;
36653;SDS011;22650;49.350;20.898;2022-12-07T03:47:00;7.53;;;2.90;;
36653;SDS011;22650;49.350;20.898;2022-12-07T03:49:40;5.28;;;2.33;;
36653;SDS011;22650;49.350;20.898;2022-12-07T03:52:20;3.22;;;2.10;;
36653;SDS011;22650;49.350;20.898;2022-12-07T03:54:59;4.28;;;2.45;;
36653;SDS011;22650;49.350;20.898;2022-12-07T03:57:36;6.07;;;2.40;;
36653;SDS011;22650;49.350;20.898;2022-12-07T04:00:13;5.68;;;3.17;;
36653;SDS011;22650;49.350;20.898;2022-12-07T04:02:47;4.35;;;2.20;;
36653;SDS011;22650;49.350;20.898;2022-12-07T04:05:22;8.35;;;3.00;;
36653;SDS011;22650;49.350;20.898;2022-12-07T04:07:55;8.10;;;3.58;;
36653;SDS011;22650;49.350;20.898;2022-12-07T04:10:29;5.82;;;2.97;;
36653;SDS011;22650;49.350;20.898;2022-12-07T04:13:03;7.10;;;3.17;;
36653;SDS011;22650;49.350;20.898;2022-12-07T04:15:36;4.55;;;3.13;;
36653;SDS011;22650;49.350;20.898;2022-12-07T04:18:10;7.85;;;3.70;;
36653;SDS011;22650;49.350;20.898;2022-12-07T04:20:45;8.55;;;3.50;;
36653;SDS011;22650;49.350;20.898;2022-12-07T04:23:18;6.07;;;2.63;;
36653;SDS011;22650;49.350;20.898;2022-12-07T04:25:51;5.72;;;3.33;;
36653;SDS011;22650;49.350;20.898;2022-12-07T04:28:25;8.15;;;3.05;;
36653;SDS011;22650;49.350;20.898;2022-12-07T04:30:58;3.80;;;2.25;;
36653;SDS011;22650;49.350;20.898;2022-12-07T04:33:32;6.90;;;2.97;;
36653;SDS011;22650;49.350;20.898;2022-12-07T04:36:07;6.07;;;2.78;;
36653;SDS011;22650;49.350;20.898;2022-12-07T04:38:40;6.03;;;3.38;;
36653;SDS011;22650;49.350;20.898;2022-12-07T04:41:13;6.10;;;3.40;;
36653;SDS011;22650;49.350;20.898;2022-12-07T04:43:47;5.55;;;2.88;;
36653;SDS011;22650;49.350;20.898;2022-12-07T04:46:20;3.63;;;2.30;;
36653;SDS011;22650;49.350;20.898;2022-12-07T04:48:54;9.93;;;4.20;;
36653;SDS011;22650;49.350;20.898;2022-12-07T04:51:29;10.82;;;4.50;;
36653;SDS011;22650;49.350;20.898;2022-12-07T04:54:03;8.60;;;3.83;;
36653;SDS011;22650;49.350;20.898;2022-12-07T04:56:37;5.95;;;3.17;;
36653;SDS011;22650;49.350;20.898;2022-12-07T04:59:11;8.40;;;4.85;;
36653;SDS011;22650;49.350;20.898;2022-12-07T05:01:45;7.05;;;3.08;;
36653;SDS011;22650;49.350;20.898;2022-12-07T05:04:19;7.50;;;3.50;;
36653;SDS011;22650;49.350;20.898;2022-12-07T05:06:54;5.50;;;3.15;;
36653;SDS011;22650;49.350;20.898;2022-12-07T05:09:27;9.45;;;3.92;;
36653;SDS011;22650;49.350;20.898;2022-12-07T05:12:00;6.65;;;3.55;;
36653;SDS011;22650;49.350;20.898;2022-12-07T05:14:34;6.60;;;3.33;;
36653;SDS011;22650;49.350;20.898;2022-12-07T05:17:07;7.63;;;3.45;;
36653;SDS011;22650;49.350;20.898;2022-12-07T05:19:41;7.18;;;3.80;;
36653;SDS011;22650;49.350;20.898;2022-12-07T05:22:16;7.20;;;3.20;;
36653;SDS011;22650;49.350;20.898;2022-12-07T05:24:49;8.00;;;3.50;;
36653;SDS011;22650;49.350;20.898;2022-12-07T05:27:22;7.93;;;3.50;;
36653;SDS011;22650;49.350;20.898;2022-12-07T05:29:56;5.10;;;2.53;;
36653;SDS011;22650;49.350;20.898;2022-12-07T05:32:30;6.90;;;3.30;;
36653;SDS011;22650;49.350;20.898;2022-12-07T05:35:03;6.90;;;3.28;;
36653;SDS011;22650;49.350;20.898;2022-12-07T05:37:39;7.55;;;2.75;;
36653;SDS011;22650;49.350;20.898;2022-12-07T05:40:13;9.15;;;3.20;;
36653;SDS011;22650;49.350;20.898;2022-12-07T05:42:47;6.47;;;3.20;;
36653;SDS011;22650;49.350;20.898;2022-12-07T05:45:21;7.13;;;2.00;;
36653;SDS011;22650;49.350;20.898;2022-12-07T05:47:54;6.00;;;2.80;;
36653;SDS011;22650;49.350;20.898;2022-12-07T05:50:27;4.22;;;2.30;;
36653;SDS011;22650;49.350;20.898;2022-12-07T05:53:05;6.18;;;2.50;;
36653;SDS011;22650;49.350;20.898;2022-12-07T05:55:39;6.32;;;2.78;;
36653;SDS011;22650;49.350;20.898;2022-12-07T05:58:12;3.70;;;2.20;;
36653;SDS011;22650;49.350;20.898;2022-12-07T06:01:03;4.95;;;2.10;;
36653;SDS011;22650;49.350;20.898;2022-12-07T06:03:37;6.78;;;3.00;;
36653;SDS011;22650;49.350;20.898;2022-12-07T06:06:10;5.93;;;3.30;;
36653;SDS011;22650;49.350;20.898;2022-12-07T06:08:45;6.07;;;3.35;;
36653;SDS011;22650;49.350;20.898;2022-12-07T06:11:18;6.55;;;3.42;;
36653;SDS011;22650;49.350;20.898;2022-12-07T06:14:09;5.40;;;2.50;;
36653;SDS011;22650;49.350;20.898;2022-12-07T06:16:43;5.93;;;2.38;;
36653;SDS011;22650;49.350;20.898;2022-12-07T06:19:16;6.90;;;2.92;;
36653;SDS011;22650;49.350;20.898;2022-12-07T06:21:50;4.72;;;2.60;;
36653;SDS011;22650;49.350;20.898;2022-12-07T06:24:25;5.82;;;2.55;;
36653;SDS011;22650;49.350;20.898;2022-12-07T06:26:58;8.15;;;3.65;;
36653;SDS011;22650;49.350;20.898;2022-12-07T06:29:32;6.18;;;3.75;;
36653;SDS011;22650;49.350;20.898;2022-12-07T06:32:05;4.43;;;3.00;;
36653;SDS011;22650;49.350;20.898;2022-12-07T06:34:39;6.40;;;3.22;;
36653;SDS011;22650;49.350;20.898;2022-12-07T06:37:12;5.32;;;3.13;;
36653;SDS011;22650;49.350;20.898;2022-12-07T06:39:47;5.63;;;3.15;;
36653;SDS011;22650;49.350;20.898;2022-12-07T06:42:20;8.02;;;4.05;;
36653;SDS011;22650;49.350;20.898;2022-12-07T06:44:54;5.72;;;2.58;;
36653;SDS011;22650;49.350;20.898;2022-12-07T06:47:27;8.77;;;3.65;;
36653;SDS011;22650;49.350;20.898;2022-12-07T06:50:17;12.90;;;6.22;;
36653;SDS011;22650;49.350;20.898;2022-12-07T06:52:50;17.52;;;6.47;;
36653;SDS011;22650;49.350;20.898;2022-12-07T06:55:25;15.57;;;7.47;;
36653;SDS011;22650;49.350;20.898;2022-12-07T06:57:58;14.27;;;6.93;;
36653;SDS011;22650;49.350;20.898;2022-12-07T07:00:33;15.32;;;6.20;;
36653;SDS011;22650;49.350;20.898;2022-12-07T07:03:07;17.52;;;7.75;;
36653;SDS011;22650;49.350;20.898;2022-12-07T07:05:41;15.27;;;6.82;;
36653;SDS011;22650;49.350;20.898;2022-12-07T07:08:14;12.70;;;5.25;;
36653;SDS011;22650;49.350;20.898;2022-12-07T07:10:54;13.40;;;6.25;;
36653;SDS011;22650;49.350;20.898;2022-12-07T07:13:28;12.18;;;5.20;;
36653;SDS011;22650;49.350;20.898;2022-12-07T07:16:01;11.65;;;5.18;;
36653;SDS011;22650;49.350;20.898;2022-12-07T07:18:35;10.05;;;4.88;;
36653;SDS011;22650;49.350;20.898;2022-12-07T07:21:08;9.82;;;4.82;;
36653;SDS011;22650;49.350;20.898;2022-12-07T07:23:41;151.45;;;46.83;;
36653;SDS011;22650;49.350;20.898;2022-12-07T07:26:16;150.70;;;52.55;;
36653;SDS011;22650;49.350;20.898;2022-12-07T07:28:53;57.22;;;21.75;;
36653;SDS011;22650;49.350;20.898;2022-12-07T07:31:27;57.40;;;22.08;;
36653;SDS011;22650;49.350;20.898;2022-12-07T07:34:00;41.78;;;17.88;;
36653;SDS011;22650;49.350;20.898;2022-12-07T07:36:34;60.67;;;21.13;;
36653;SDS011;22650;49.350;20.898;2022-12-07T07:39:07;18.80;;;8.30;;
36653;SDS011;22650;49.350;20.898;2022-12-07T07:41:45;18.55;;;9.52;;
36653;SDS011;22650;49.350;20.898;2022-12-07T07:44:28;14.90;;;7.13;;
36653;SDS011;22650;49.350;20.898;2022-12-07T07:47:06;18.00;;;7.60;;
36653;SDS011;22650;49.350;20.898;2022-12-07T07:49:39;15.80;;;7.55;;
36653;SDS011;22650;49.350;20.898;2022-12-07T07:52:18;15.48;;;8.48;;
36653;SDS011;22650;49.350;20.898;2022-12-07T07:54:52;24.00;;;9.82;;
36653;SDS011;22650;49.350;20.898;2022-12-07T07:57:26;20.20;;;9.68;;
36653;SDS011;22650;49.350;20.898;2022-12-07T07:59:59;19.50;;;8.38;;
36653;SDS011;22650;49.350;20.898;2022-12-07T08:02:45;18.45;;;9.07;;
36653;SDS011;22650;49.350;20.898;2022-12-07T08:05:18;18.70;;;8.48;;
36653;SDS011;22650;49.350;20.898;2022-12-07T08:07:51;19.30;;;7.57;;
36653;SDS011;22650;49.350;20.898;2022-12-07T08:10:25;18.02;;;7.25;;
36653;SDS011;22650;49.350;20.898;2022-12-07T08:13:00;13.30;;;6.95;;
36653;SDS011;22650;49.350;20.898;2022-12-07T08:15:46;21.13;;;8.38;;
36653;SDS011;22650;49.350;20.898;2022-12-07T08:18:20;20.02;;;8.15;;
36653;SDS011;22650;49.350;20.898;2022-12-07T08:20:58;16.27;;;7.43;;
36653;SDS011;22650;49.350;20.898;2022-12-07T08:23:32;15.02;;;6.57;;
36653;SDS011;22650;49.350;20.898;2022-12-07T08:26:11;16.02;;;8.70;;
36653;SDS011;22650;49.350;20.898;2022-12-07T08:28:48;17.45;;;8.63;;
36653;SDS011;22650;49.350;20.898;2022-12-07T08:31:21;14.63;;;6.97;;
36653;SDS011;22650;49.350;20.898;2022-12-07T08:33:55;9.00;;;5.25;;
36653;SDS011;22650;49.350;20.898;2022-12-07T08:36:28;15.63;;;6.30;;
36653;SDS011;22650;49.350;20.898;2022-12-07T08:39:02;12.75;;;5.60;;
36653;SDS011;22650;49.350;20.898;2022-12-07T08:41:55;8.50;;;4.78;;
36653;SDS011;22650;49.350;20.898;2022-12-07T08:44:30;9.00;;;4.75;;
36653;SDS011;22650;49.350;20.898;2022-12-07T08:47:04;9.35;;;4.22;;
36653;SDS011;22650;49.350;20.898;2022-12-07T08:49:40;9.55;;;4.60;;
36653;SDS011;22650;49.350;20.898;2022-12-07T08:52:17;8.90;;;4.43;;
36653;SDS011;22650;49.350;20.898;2022-12-07T08:54:51;9.93;;;4.57;;
36653;SDS011;22650;49.350;20.898;2022-12-07T08:57:24;8.90;;;4.22;;
36653;SDS011;22650;49.350;20.898;2022-12-07T09:00:00;8.80;;;3.58;;
36653;SDS011;22650;49.350;20.898;2022-12-07T09:02:34;9.23;;;3.78;;
36653;SDS011;22650;49.350;20.898;2022-12-07T09:05:08;11.75;;;5.45;;
36653;SDS011;22650;49.350;20.898;2022-12-07T09:07:48;5.90;;;3.42;;
36653;SDS011;22650;49.350;20.898;2022-12-07T09:10:24;10.35;;;5.10;;
36653;SDS011;22650;49.350;20.898;2022-12-07T09:12:57;8.50;;;4.57;;
36653;SDS011;22650;49.350;20.898;2022-12-07T09:15:33;7.47;;;5.00;;
36653;SDS011;22650;49.350;20.898;2022-12-07T09:18:07;10.65;;;6.00;;
36653;SDS011;22650;49.350;20.898;2022-12-07T09:20:40;9.82;;;4.78;;
36653;SDS011;22650;49.350;20.898;2022-12-07T09:23:13;16.73;;;7.45;;
36653;SDS011;22650;49.350;20.898;2022-12-07T09:25:47;14.23;;;7.22;;
36653;SDS011;22650;49.350;20.898;2022-12-07T09:28:20;10.25;;;4.47;;
36653;SDS011;22650;49.350;20.898;2022-12-07T09:30:55;9.60;;;4.88;;
36653;SDS011;22650;49.350;20.898;2022-12-07T09:33:52;6.60;;;4.55;;
36653;SDS011;22650;49.350;20.898;2022-12-07T09:36:26;8.10;;;4.20;;
36653;SDS011;22650;49.350;20.898;2022-12-07T09:39:00;6.45;;;4.05;;
36653;SDS011;22650;49.350;20.898;2022-12-07T09:41:37;9.68;;;4.57;;
36653;SDS011;22650;49.350;20.898;2022-12-07T09:44:12;8.18;;;4.25;;
36653;SDS011;22650;49.350;20.898;2022-12-07T09:46:48;7.15;;;4.03;;
36653;SDS011;22650;49.350;20.898;2022-12-07T09:49:23;8.50;;;4.97;;
36653;SDS011;22650;49.350;20.898;2022-12-07T09:52:02;9.75;;;5.15;;
36653;SDS011;22650;49.350;20.898;2022-12-07T09:54:49;11.38;;;5.72;;
36653;SDS011;22650;49.350;20.898;2022-12-07T09:57:25;9.40;;;4.72;;
36653;SDS011;22650;49.350;20.898;2022-12-07T10:00:03;11.38;;;4.15;;
36653;SDS011;22650;49.350;20.898;2022-12-07T10:02:41;7.45;;;4.03;;
36653;SDS011;22650;49.350;20.898;2022-12-07T10:05:18;8.88;;;4.20;;
36653;SDS011;22650;49.350;20.898;2022-12-07T10:07:55;9.32;;;4.60;;
36653;SDS011;22650;49.350;20.898;2022-12-07T10:10:29;9.30;;;4.20;;
36653;SDS011;22650;49.350;20.898;2022-12-07T10:13:09;9.73;;;4.97;;
36653;SDS011;22650;49.350;20.898;2022-12-07T10:15:45;12.90;;;5.90;;
36653;SDS011;22650;49.350;20.898;2022-12-07T10:18:30;7.93;;;4.18;;
36653;SDS011;22650;49.350;20.898;2022-12-07T10:21:08;6.90;;;3.78;;
36653;SDS011;22650;49.350;20.898;2022-12-07T10:23:59;8.30;;;4.30;;
36653;SDS011;22650;49.350;20.898;2022-12-07T10:26:34;9.77;;;4.47;;
36653;SDS011;22650;49.350;20.898;2022-12-07T10:29:13;11.00;;;5.53;;
36653;SDS011;22650;49.350;20.898;2022-12-07T10:31:51;16.35;;;7.70;;
36653;SDS011;22650;49.350;20.898;2022-12-07T10:34:30;17.23;;;8.02;;
36653;SDS011;22650;49.350;20.898;2022-12-07T10:37:16;10.98;;;5.38;;
36653;SDS011;22650;49.350;20.898;2022-12-07T10:39:52;14.55;;;5.63;;
36653;SDS011;22650;49.350;20.898;2022-12-07T10:42:27;11.38;;;5.95;;
36653;SDS011;22650;49.350;20.898;2022-12-07T10:45:09;7.65;;;4.40;;
36653;SDS011;22650;49.350;20.898;2022-12-07T10:47:47;14.57;;;6.10;;
36653;SDS011;22650;49.350;20.898;2022-12-07T10:50:32;13.02;;;6.05;;
36653;SDS011;22650;49.350;20.898;2022-12-07T10:53:25;11.93;;;5.28;;
36653;SDS011;22650;49.350;20.898;2022-12-07T10:56:12;11.07;;;4.60;;
36653;SDS011;22650;49.350;20.898;2022-12-07T10:59:15;10.55;;;5.30;;
36653;SDS011;22650;49.350;20.898;2022-12-07T11:01:58;11.35;;;5.03;;
36653;SDS011;22650;49.350;20.898;2022-12-07T11:04:55;8.63;;;4.03;;
36653;SDS011;22650;49.350;20.898;2022-12-07T11:07:41;7.90;;;3.58;;
36653;SDS011;22650;49.350;20.898;2022-12-07T11:10:29;6.88;;;3.47;;
36653;SDS011;22650;49.350;20.898;2022-12-07T11:13:22;8.00;;;4.18;;
36653;SDS011;22650;49.350;20.898;2022-12-07T11:16:14;6.55;;;3.80;;
36653;SDS011;22650;49.350;20.898;2022-12-07T11:19:06;8.15;;;3.65;;
36653;SDS011;22650;49.350;20.898;2022-12-07T11:21:58;6.55;;;3.55;;
36653;SDS011;22650;49.350;20.898;2022-12-07T11:24:40;11.68;;;5.65;;
36653;SDS011;22650;49.350;20.898;2022-12-07T11:27:23;15.32;;;6.65;;
36653;SDS011;22650;49.350;20.898;2022-12-07T11:30:13;10.38;;;4.82;;
36653;SDS011;22650;49.350;20.898;2022-12-07T11:35:54;6.85;;;3.67;;
36653;SDS011;22650;49.350;20.898;2022-12-07T11:38:37;5.28;;;3.05;;
36653;SDS011;22650;49.350;20.898;2022-12-07T11:41:17;6.07;;;3.80;;
36653;SDS011;22650;49.350;20.898;2022-12-07T11:43:56;6.93;;;3.47;;
36653;SDS011;22650;49.350;20.898;2022-12-07T11:46:39;7.38;;;3.38;;
36653;SDS011;22650;49.350;20.898;2022-12-07T11:49:21;3.30;;;2.22;;
36653;SDS011;22650;49.350;20.898;2022-12-07T11:52:02;4.05;;;2.25;;
36653;SDS011;22650;49.350;20.898;2022-12-07T11:54:40;4.15;;;1.90;;
36653;SDS011;22650;49.350;20.898;2022-12-07T11:57:18;5.82;;;2.45;;
36653;SDS011;22650;49.350;20.898;2022-12-07T11:59:58;2.45;;;1.58;;
36653;SDS011;22650;49.350;20.898;2022-12-07T12:02:36;5.70;;;1.80;;
36653;SDS011;22650;49.350;20.898;2022-12-07T12:05:16;5.68;;;2.20;;
36653;SDS011;22650;49.350;20.898;2022-12-07T12:07:54;5.97;;;2.75;;
36653;SDS011;22650;49.350;20.898;2022-12-07T12:10:59;3.20;;;1.77;;
36653;SDS011;22650;49.350;20.898;2022-12-07T12:13:48;4.38;;;1.90;;
36653;SDS011;22650;49.350;20.898;2022-12-07T12:20:01;6.53;;;3.03;;
36653;SDS011;22650;49.350;20.898;2022-12-07T12:22:39;8.63;;;3.58;;
36653;SDS011;22650;49.350;20.898;2022-12-07T12:25:17;6.80;;;3.97;;
36653;SDS011;22650;49.350;20.898;2022-12-07T12:27:54;4.97;;;2.92;;
36653;SDS011;22650;49.350;20.898;2022-12-07T12:30:33;14.48;;;3.85;;
36653;SDS011;22650;49.350;20.898;2022-12-07T12:33:12;5.88;;;2.38;;
36653;SDS011;22650;49.350;20.898;2022-12-07T12:35:50;5.72;;;3.15;;
36653;SDS011;22650;49.350;20.898;2022-12-07T12:39:09;7.65;;;3.53;;
36653;SDS011;22650;49.350;20.898;2022-12-07T12:41:52;9.43;;;4.63;;
36653;SDS011;22650;49.350;20.898;2022-12-07T12:47:56;7.70;;;4.33;;
36653;SDS011;22650;49.350;20.898;2022-12-07T12:50:31;6.38;;;3.55;;
36653;SDS011;22650;49.350;20.898;2022-12-07T12:53:12;8.38;;;4.50;;
36653;SDS011;22650;49.350;20.898;2022-12-07T13:02:14;7.97;;;3.80;;
36653;SDS011;22650;49.350;20.898;2022-12-07T13:04:54;10.20;;;4.22;;
36653;SDS011;22650;49.350;20.898;2022-12-07T13:10:40;8.23;;;2.95;;
36653;SDS011;22650;49.350;20.898;2022-12-07T13:13:30;9.48;;;3.97;;
36653;SDS011;22650;49.350;20.898;2022-12-07T13:22:40;5.60;;;2.70;;
36653;SDS011;22650;49.350;20.898;2022-12-07T13:25:37;10.70;;;4.28;;
36653;SDS011;22650;49.350;20.898;2022-12-07T13:28:18;10.23;;;5.07;;
36653;SDS011;22650;49.350;20.898;2022-12-07T13:31:13;6.40;;;4.03;;
36653;SDS011;22650;49.350;20.898;2022-12-07T13:34:04;11.02;;;5.25;;
36653;SDS011;22650;49.350;20.898;2022-12-07T13:36:57;9.90;;;4.32;;
36653;SDS011;22650;49.350;20.898;2022-12-07T13:39:32;14.07;;;5.45;;
36653;SDS011;22650;49.350;20.898;2022-12-07T13:42:09;10.80;;;4.75;;
36653;SDS011;22650;49.350;20.898;2022-12-07T13:44:52;12.30;;;4.88;;
36653;SDS011;22650;49.350;20.898;2022-12-07T13:47:30;12.13;;;6.78;;
36653;SDS011;22650;49.350;20.898;2022-12-07T13:50:21;8.23;;;4.55;;
36653;SDS011;22650;49.350;20.898;2022-12-07T13:52:57;13.43;;;6.40;;
36653;SDS011;22650;49.350;20.898;2022-12-07T13:55:31;12.05;;;6.53;;
36653;SDS011;22650;49.350;20.898;2022-12-07T13:58:07;10.35;;;5.05;;
36653;SDS011;22650;49.350;20.898;2022-12-07T14:00:41;11.73;;;6.10;;
36653;SDS011;22650;49.350;20.898;2022-12-07T14:03:30;9.57;;;5.00;;
36653;SDS011;22650;49.350;20.898;2022-12-07T14:06:07;11.40;;;6.40;;
36653;SDS011;22650;49.350;20.898;2022-12-07T14:09:16;12.38;;;7.03;;
36653;SDS011;22650;49.350;20.898;2022-12-07T14:11:52;13.30;;;6.43;;
36653;SDS011;22650;49.350;20.898;2022-12-07T14:14:27;15.38;;;6.82;;
36653;SDS011;22650;49.350;20.898;2022-12-07T14:17:11;10.98;;;5.57;;
36653;SDS011;22650;49.350;20.898;2022-12-07T14:19:50;17.90;;;7.82;;
36653;SDS011;22650;49.350;20.898;2022-12-07T14:22:27;17.05;;;8.27;;
36653;SDS011;22650;49.350;20.898;2022-12-07T14:25:16;14.93;;;7.38;;
36653;SDS011;22650;49.350;20.898;2022-12-07T14:27:53;12.20;;;5.68;;
36653;SDS011;22650;49.350;20.898;2022-12-07T14:30:29;13.02;;;7.03;;
36653;SDS011;22650;49.350;20.898;2022-12-07T14:33:04;16.90;;;7.93;;
36653;SDS011;22650;49.350;20.898;2022-12-07T14:35:42;14.60;;;6.68;;
36653;SDS011;22650;49.350;20.898;2022-12-07T14:38:15;13.57;;;5.60;;
36653;SDS011;22650;49.350;20.898;2022-12-07T14:40:50;10.48;;;5.57;;
36653;SDS011;22650;49.350;20.898;2022-12-07T14:43:24;15.52;;;8.80;;
36653;SDS011;22650;49.350;20.898;2022-12-07T14:45:57;11.40;;;6.50;;
36653;SDS011;22650;49.350;20.898;2022-12-07T14:48:30;8.43;;;5.10;;
36653;SDS011;22650;49.350;20.898;2022-12-07T14:51:25;13.88;;;6.85;;
36653;SDS011;22650;49.350;20.898;2022-12-07T14:54:19;20.13;;;8.65;;
36653;SDS011;22650;49.350;20.898;2022-12-07T14:56:55;12.77;;;6.07;;
36653;SDS011;22650;49.350;20.898;2022-12-07T14:59:28;12.07;;;6.53;;
36653;SDS011;22650;49.350;20.898;2022-12-07T15:02:01;14.05;;;6.65;;
36653;SDS011;22650;49.350;20.898;2022-12-07T15:04:34;11.85;;;6.30;;
36653;SDS011;22650;49.350;20.898;2022-12-07T15:07:13;12.98;;;6.53;;
36653;SDS011;22650;49.350;20.898;2022-12-07T15:09:50;15.07;;;7.03;;
36653;SDS011;22650;49.350;20.898;2022-12-07T15:12:24;14.10;;;6.57;;
36653;SDS011;22650;49.350;20.898;2022-12-07T15:14:57;13.18;;;7.18;;
36653;SDS011;22650;49.350;20.898;2022-12-07T15:17:31;16.75;;;8.10;;
36653;SDS011;22650;49.350;20.898;2022-12-07T15:20:05;20.30;;;9.40;;
36653;SDS011;22650;49.350;20.898;2022-12-07T15:22:44;20.25;;;7.95;;
36653;SDS011;22650;49.350;20.898;2022-12-07T15:25:17;18.88;;;7.63;;
36653;SDS011;22650;49.350;20.898;2022-12-07T15:27:51;18.38;;;7.88;;
36653;SDS011;22650;49.350;20.898;2022-12-07T15:30:24;13.77;;;6.53;;
36653;SDS011;22650;49.350;20.898;2022-12-07T15:32:58;12.25;;;6.20;;
36653;SDS011;22650;49.350;20.898;2022-12-07T15:35:31;13.20;;;7.00;;
36653;SDS011;22650;49.350;20.898;2022-12-07T15:38:06;14.30;;;7.30;;
36653;SDS011;22650;49.350;20.898;2022-12-07T15:40:39;11.85;;;6.55;;
36653;SDS011;22650;49.350;20.898;2022-12-07T15:43:12;14.32;;;6.65;;
36653;SDS011;22650;49.350;20.898;2022-12-07T15:46:00;14.65;;;7.07;;
36653;SDS011;22650;49.350;20.898;2022-12-07T15:48:33;19.20;;;8.50;;
36653;SDS011;22650;49.350;20.898;2022-12-07T15:51:07;20.05;;;9.82;;
36653;SDS011;22650;49.350;20.898;2022-12-07T15:53:42;18.13;;;8.93;;
36653;SDS011;22650;49.350;20.898;2022-12-07T15:56:16;17.65;;;8.93;;